createdAt,value
2022-08-27T00:01:41.411Z,25.23
2022-08-27T00:04:09.331Z,33.47
2022-08-27T00:06:37.259Z,30.80
2022-08-27T00:09:06.598Z,28.70
2022-08-27T00:11:34.608Z,29.88
2022-08-27T00:14:04.163Z,28.52
2022-08-27T00:16:32.579Z,29.17
2022-08-27T00:19:00.539Z,27.42
2022-08-27T00:21:28.661Z,32.03
2022-08-27T00:23:56.530Z,30.20
2022-08-27T00:26:24.572Z,30.38
2022-08-27T00:28:53.220Z,26.45
2022-08-27T00:31:23.695Z,29.20
2022-08-27T00:33:55.588Z,24.80
2022-08-27T00:36:23.465Z,32.10
2022-08-27T00:38:54.122Z,27.70
2022-08-27T00:41:23.258Z,31.33
2022-08-27T00:43:53.793Z,35.90
2022-08-27T00:46:27.617Z,34.83
2022-08-27T00:48:59.017Z,35.72
2022-08-27T00:51:28.384Z,36.28
2022-08-27T00:53:58.746Z,34.35
2022-08-27T00:56:30.291Z,36.15
2022-08-27T00:58:58.433Z,42.78
2022-08-27T01:01:30.452Z,41.28
2022-08-27T01:04:05.830Z,41.28
2022-08-27T01:06:36.638Z,39.03
2022-08-27T01:09:08.736Z,43.50
2022-08-27T01:11:37.333Z,40.90
2022-08-27T01:14:06.110Z,37.30
2022-08-27T01:16:39.523Z,37.92
2022-08-27T01:19:11.759Z,37.60
2022-08-27T01:21:47.675Z,40.30
2022-08-27T01:24:31.137Z,38.60
2022-08-27T01:27:00.130Z,36.85
2022-08-27T01:29:28.519Z,44.35
2022-08-27T01:32:00.801Z,36.33
2022-08-27T01:34:28.756Z,34.70
2022-08-27T01:36:57.473Z,32.25
2022-08-27T01:39:27.033Z,34.67
2022-08-27T01:41:57.716Z,35.53
2022-08-27T01:44:25.555Z,37.60
2022-08-27T01:46:53.598Z,38.83
2022-08-27T01:49:21.575Z,40.47
2022-08-27T01:51:49.525Z,31.75
2022-08-27T01:54:17.421Z,38.90
2022-08-27T01:56:46.634Z,59.65
2022-08-27T01:59:14.489Z,49.13
2022-08-27T02:01:42.443Z,62.90
2022-08-27T02:04:10.390Z,58.15
2022-08-27T02:06:38.243Z,52.13
2022-08-27T02:09:06.182Z,82.20
2022-08-27T02:11:34.084Z,73.28
2022-08-27T02:14:14.547Z,78.07
2022-08-27T02:16:52.566Z,61.45
2022-08-27T02:19:21.497Z,62.33
2022-08-27T02:21:50.370Z,67.40
2022-08-27T02:24:18.241Z,62.17
2022-08-27T02:26:46.232Z,63.45
2022-08-27T02:29:15.469Z,71.47
2022-08-27T02:31:43.409Z,40.00
2022-08-27T02:34:11.345Z,39.72
2022-08-27T02:36:39.419Z,38.33
2022-08-27T02:39:07.635Z,39.38
2022-08-27T02:41:35.898Z,45.95
2022-08-27T02:44:10.129Z,41.88
2022-08-27T02:46:40.447Z,41.28
2022-08-27T02:49:09.509Z,42.13
2022-08-27T02:51:37.676Z,49.90
2022-08-27T02:54:09.524Z,51.25
2022-08-27T02:56:37.953Z,54.10
2022-08-27T02:59:06.137Z,49.92
2022-08-27T03:01:34.095Z,52.97
2022-08-27T03:04:03.533Z,56.55
2022-08-27T03:06:32.045Z,54.85
2022-08-27T03:09:00.007Z,59.60
2022-08-27T03:11:28.018Z,51.15
2022-08-27T03:13:56.055Z,51.40
2022-08-27T03:16:23.949Z,52.30
2022-08-27T03:18:51.393Z,48.97
2022-08-27T03:23:49.987Z,59.85
2022-08-27T03:26:18.958Z,61.65
2022-08-27T03:28:47.213Z,63.97
2022-08-27T03:31:20.489Z,54.90
2022-08-27T03:33:48.472Z,59.78
2022-08-27T03:36:16.336Z,58.67
2022-08-27T03:38:45.579Z,64.93
2022-08-27T03:41:14.152Z,69.38
2022-08-27T03:43:42.065Z,69.60
2022-08-27T03:46:10.276Z,82.55
2022-08-27T03:48:38.385Z,69.43
2022-08-27T03:51:07.953Z,78.45
2022-08-27T03:53:36.905Z,76.10
2022-08-27T03:56:08.205Z,78.88
2022-08-27T03:58:37.219Z,90.85
2022-08-27T04:01:08.027Z,84.45
2022-08-27T04:03:36.303Z,89.95
2022-08-27T04:06:04.390Z,91.20
2022-08-27T04:08:33.096Z,90.63
2022-08-27T04:11:01.021Z,101.93
2022-08-27T04:13:30.306Z,106.22
2022-08-27T04:15:58.250Z,103.85
2022-08-27T04:18:26.254Z,109.95
2022-08-27T04:20:54.150Z,115.60
2022-08-27T04:23:22.485Z,108.53
2022-08-27T04:25:50.640Z,118.82
2022-08-27T04:28:18.563Z,112.55
2022-08-27T04:30:48.236Z,110.78
2022-08-27T04:33:16.624Z,117.22
2022-08-27T04:35:44.758Z,126.45
2022-08-27T04:38:12.887Z,139.85
2022-08-27T04:40:58.698Z,128.20
2022-08-27T04:43:29.242Z,120.63
2022-08-27T04:45:58.485Z,127.43
2022-08-27T04:48:27.053Z,127.00
2022-08-27T04:50:55.513Z,124.93
2022-08-27T04:53:23.578Z,130.43
2022-08-27T04:55:54.184Z,138.13
2022-08-27T04:58:23.906Z,124.57
2022-08-27T05:00:57.998Z,130.45
2022-08-27T05:03:27.319Z,128.18
2022-08-27T05:06:00.875Z,115.30
2022-08-27T05:08:28.892Z,120.03
2022-08-27T05:10:57.210Z,118.90
2022-08-27T05:13:25.188Z,109.38
2022-08-27T05:15:59.900Z,123.88
2022-08-27T05:18:29.966Z,108.18
2022-08-27T05:20:58.341Z,114.50
2022-08-27T05:23:27.970Z,122.93
2022-08-27T05:25:57.575Z,111.13
2022-08-27T05:28:28.469Z,110.72
2022-08-27T05:31:07.728Z,105.10
2022-08-27T05:33:38.473Z,110.35
2022-08-27T05:36:07.674Z,113.72
2022-08-27T05:38:36.201Z,116.40
2022-08-27T05:41:06.721Z,101.85
2022-08-27T05:43:34.767Z,109.68
2022-08-27T05:46:05.649Z,100.53
2022-08-27T05:48:35.059Z,100.00
2022-08-27T05:51:11.216Z,109.60
2022-08-27T05:53:40.054Z,95.32
2022-08-27T05:56:14.388Z,100.80
2022-08-27T05:58:59.972Z,96.20
2022-08-27T06:01:28.278Z,105.40
2022-08-27T06:03:56.390Z,105.53
2022-08-27T06:06:25.977Z,100.47
2022-08-27T06:08:55.586Z,97.28
2022-08-27T06:11:24.356Z,88.18
2022-08-27T06:13:52.221Z,90.25
2022-08-27T06:16:21.080Z,88.30
2022-08-27T06:18:50.239Z,78.35
2022-08-27T06:21:24.234Z,82.38
2022-08-27T06:23:54.730Z,86.28
2022-08-27T06:26:24.661Z,76.00
2022-08-27T06:28:52.896Z,78.82
2022-08-27T06:31:23.259Z,74.80
2022-08-27T06:33:52.744Z,78.03
2022-08-27T06:36:23.987Z,74.35
2022-08-27T06:38:56.253Z,74.78
2022-08-27T06:41:27.039Z,74.10
2022-08-27T06:43:55.947Z,74.63
2022-08-27T06:46:26.594Z,81.20
2022-08-27T06:48:56.210Z,69.97
2022-08-27T06:51:26.840Z,69.05
2022-08-27T06:53:58.114Z,67.43
2022-08-27T06:56:26.234Z,61.75
2022-08-27T06:58:55.625Z,65.43
2022-08-27T07:01:27.073Z,64.65
2022-08-27T07:03:56.182Z,69.72
2022-08-27T07:06:26.170Z,64.15
2022-08-27T07:08:54.087Z,63.45
2022-08-27T07:11:23.917Z,67.00
2022-08-27T07:13:52.483Z,67.88
2022-08-27T07:16:23.147Z,60.47
2022-08-27T07:18:52.872Z,59.28
2022-08-27T07:21:21.458Z,58.47
2022-08-27T07:23:51.346Z,58.15
2022-08-27T07:26:19.965Z,57.50
2022-08-27T07:28:50.191Z,57.85
2022-08-27T07:31:21.160Z,61.45
2022-08-27T07:33:51.443Z,53.00
2022-08-27T07:36:21.575Z,59.50
2022-08-27T07:38:57.043Z,53.40
2022-08-27T07:41:30.843Z,59.30
2022-08-27T07:44:19.014Z,55.88
2022-08-27T07:46:49.496Z,52.17
2022-08-27T07:49:17.685Z,58.72
2022-08-27T07:51:46.456Z,62.63
2022-08-27T07:54:14.603Z,54.85
2022-08-27T07:56:44.302Z,60.30
2022-08-27T07:59:26.059Z,54.22
2022-08-27T08:01:54.390Z,49.05
2022-08-27T08:04:22.777Z,56.38
2022-08-27T08:06:51.148Z,60.70
2022-08-27T08:09:19.134Z,66.88
2022-08-27T08:11:47.121Z,49.90
2022-08-27T08:14:15.286Z,57.75
2022-08-27T08:16:45.133Z,53.55
2022-08-27T08:19:13.081Z,63.03
2022-08-27T08:21:41.494Z,60.35
2022-08-27T08:24:09.403Z,57.58
2022-08-27T08:26:37.432Z,57.17
2022-08-27T08:29:05.446Z,64.25
2022-08-27T08:31:33.415Z,58.65
2022-08-27T08:34:02.647Z,60.42
2022-08-27T08:36:30.628Z,66.55
2022-08-27T08:38:58.868Z,62.58
2022-08-27T08:41:38.819Z,63.28
2022-08-27T08:44:14.113Z,60.47
2022-08-27T08:46:50.246Z,55.78
2022-08-27T08:49:31.298Z,57.17
2022-08-27T08:52:09.388Z,60.53
2022-08-27T08:57:09.131Z,60.47
2022-08-27T08:59:39.382Z,63.20
2022-08-27T09:02:13.319Z,58.95
2022-08-27T09:04:44.443Z,62.67
2022-08-27T09:07:20.154Z,58.45
2022-08-27T09:09:53.630Z,69.30
2022-08-27T09:12:25.055Z,56.50
2022-08-27T09:14:57.244Z,49.78
2022-08-27T09:17:25.595Z,64.55
2022-08-27T09:19:54.967Z,56.70
2022-08-27T09:22:28.826Z,55.53
2022-08-27T09:25:05.986Z,63.35
2022-08-27T09:27:35.966Z,49.93
2022-08-27T09:30:09.783Z,48.55
2022-08-27T09:32:37.683Z,50.35
2022-08-27T09:35:11.188Z,54.33
2022-08-27T09:37:43.444Z,65.82
2022-08-27T09:40:23.067Z,63.45
2022-08-27T09:42:54.055Z,53.83
2022-08-27T09:45:24.736Z,51.53
2022-08-27T09:47:55.700Z,55.28
2022-08-27T09:50:31.508Z,50.80
2022-08-27T09:53:01.100Z,57.58
2022-08-27T09:55:32.063Z,52.08
2022-08-27T09:58:00.868Z,57.55
2022-08-27T10:00:34.796Z,60.58
2022-08-27T10:03:04.663Z,52.03
2022-08-27T10:05:38.655Z,52.00
2022-08-27T10:08:14.683Z,47.50
2022-08-27T10:10:51.194Z,46.63
2022-08-27T10:13:23.040Z,45.58
2022-08-27T10:16:09.683Z,48.40
2022-08-27T10:18:46.249Z,43.47
2022-08-27T10:21:24.058Z,47.13
2022-08-27T10:24:11.982Z,47.35
2022-08-27T10:26:47.398Z,42.10
2022-08-27T10:29:27.651Z,40.92
2022-08-27T10:32:07.733Z,40.85
2022-08-27T10:34:43.581Z,50.00
2022-08-27T10:37:25.438Z,51.35
2022-08-27T10:40:14.184Z,40.05
2022-08-27T10:42:57.650Z,34.60
2022-08-27T10:45:33.267Z,40.58
2022-08-27T10:48:11.645Z,52.78
2022-08-27T10:50:47.766Z,41.95
2022-08-27T10:53:27.041Z,44.83
2022-08-27T10:56:07.219Z,30.30
2022-08-27T10:58:46.752Z,27.17
2022-08-27T11:01:20.860Z,35.90
2022-08-27T11:03:54.553Z,31.60
2022-08-27T11:06:26.828Z,26.27
2022-08-27T11:09:00.352Z,24.30
2022-08-27T11:14:33.903Z,30.42
2022-08-27T11:17:06.229Z,26.80
2022-08-27T11:19:44.164Z,31.40
2022-08-27T11:22:25.980Z,32.63
2022-08-27T11:25:00.785Z,33.58
2022-08-27T11:27:32.846Z,30.90
2022-08-27T11:30:06.325Z,36.22
2022-08-27T11:32:46.757Z,38.53
2022-08-27T11:35:19.602Z,37.80
2022-08-27T11:38:25.270Z,34.28
2022-08-27T11:41:11.158Z,41.28
2022-08-27T11:43:39.720Z,35.75
2022-08-27T11:46:09.535Z,30.63
2022-08-27T11:48:39.845Z,37.92
2022-08-27T11:51:11.621Z,35.30
2022-08-27T11:53:52.749Z,33.60
2022-08-27T11:56:40.445Z,30.80
2022-08-27T11:59:20.178Z,32.08
2022-08-27T12:01:49.030Z,33.50
2022-08-27T12:04:33.922Z,32.67
2022-08-27T12:07:05.870Z,29.48
2022-08-27T12:09:54.805Z,26.35
2022-08-27T12:12:34.750Z,28.30
2022-08-27T12:15:07.003Z,31.30
2022-08-27T12:17:44.761Z,26.33
2022-08-27T12:20:21.583Z,27.48
2022-08-27T12:23:23.056Z,25.20
2022-08-27T12:25:58.599Z,22.58
2022-08-27T12:28:29.631Z,22.25
2022-08-27T12:30:58.605Z,27.58
2022-08-27T12:33:33.925Z,26.60
2022-08-27T12:36:09.636Z,22.48
2022-08-27T12:38:50.884Z,25.27
2022-08-27T12:41:27.751Z,25.67
2022-08-27T12:44:09.005Z,28.63
2022-08-27T12:46:44.467Z,24.13
2022-08-27T12:49:38.229Z,25.65
2022-08-27T12:52:07.880Z,26.23
2022-08-27T12:54:46.207Z,28.55
2022-08-27T12:57:23.346Z,29.98
2022-08-27T13:00:05.376Z,28.13
2022-08-27T13:02:57.457Z,32.65
2022-08-27T13:05:26.128Z,30.55
2022-08-27T13:07:55.373Z,31.10
2022-08-27T13:10:27.981Z,32.22
2022-08-27T13:13:04.918Z,31.75
2022-08-27T13:15:35.226Z,30.85
2022-08-27T13:18:07.357Z,34.20
2022-08-27T13:20:37.907Z,29.75
2022-08-27T13:23:09.434Z,33.70
2022-08-27T13:25:39.964Z,32.70
2022-08-27T13:28:12.575Z,27.20
2022-08-27T13:30:48.277Z,30.80
2022-08-27T13:33:20.982Z,30.25
2022-08-27T13:35:49.141Z,34.45
2022-08-27T13:38:19.483Z,30.10
2022-08-27T13:40:59.054Z,36.17
2022-08-27T13:43:37.350Z,30.10
2022-08-27T13:46:12.918Z,22.77
2022-08-27T13:48:42.452Z,25.92
2022-08-27T13:51:11.826Z,31.60
2022-08-27T13:54:03.045Z,29.83
2022-08-27T13:56:33.021Z,33.70
2022-08-27T13:59:13.438Z,31.23
2022-08-27T14:01:56.335Z,30.25
2022-08-27T14:04:26.168Z,29.27
2022-08-27T14:06:54.810Z,39.75
2022-08-27T14:09:26.220Z,29.88
2022-08-27T14:12:01.345Z,24.73
2022-08-27T14:14:30.577Z,28.67
2022-08-27T14:17:01.675Z,31.60
2022-08-27T14:19:33.349Z,30.17
2022-08-27T14:22:05.031Z,31.95
2022-08-27T14:24:32.957Z,31.02
2022-08-27T14:27:08.896Z,26.88
2022-08-27T14:29:37.601Z,30.23
2022-08-27T14:32:08.173Z,32.38
2022-08-27T14:34:36.089Z,33.35
2022-08-27T14:37:04.923Z,27.45
2022-08-27T14:39:33.329Z,30.77
2022-08-27T14:42:01.595Z,25.48
2022-08-27T14:44:29.700Z,25.55
2022-08-27T14:46:58.682Z,31.65
2022-08-27T14:49:31.771Z,27.92
2022-08-27T14:51:59.730Z,29.52
2022-08-27T14:54:29.178Z,25.75
2022-08-27T14:57:02.919Z,34.35
2022-08-27T14:59:31.758Z,27.77
2022-08-27T15:02:01.473Z,35.65
2022-08-27T15:04:32.161Z,31.98
2022-08-27T15:07:00.610Z,30.42
2022-08-27T15:09:29.578Z,28.50
2022-08-27T15:11:58.342Z,31.40
2022-08-27T15:14:28.411Z,28.85
2022-08-27T15:16:56.755Z,29.95
2022-08-27T15:19:26.514Z,28.38
2022-08-27T15:22:02.136Z,35.80
2022-08-27T15:24:41.227Z,28.42
2022-08-27T15:27:09.150Z,32.83
2022-08-27T15:29:37.075Z,33.28
2022-08-27T15:32:05.197Z,33.15
2022-08-27T15:34:33.508Z,38.10
2022-08-27T15:37:03.586Z,35.38
2022-08-27T15:39:31.593Z,31.52
2022-08-27T15:42:06.664Z,29.63
2022-08-27T15:44:35.901Z,29.02
2022-08-27T15:47:03.811Z,38.53
2022-08-27T15:49:31.732Z,31.77
2022-08-27T15:52:00.609Z,31.17
2022-08-27T15:54:29.922Z,32.85
2022-08-27T15:56:57.820Z,30.42
2022-08-27T15:59:25.708Z,30.90
2022-08-27T16:01:54.756Z,34.42
2022-08-27T16:04:23.847Z,29.85
2022-08-27T16:06:51.822Z,35.25
2022-08-27T16:09:19.749Z,34.97
2022-08-27T16:11:49.143Z,36.00
2022-08-27T16:14:17.438Z,37.55
2022-08-27T16:16:49.995Z,32.35
2022-08-27T16:19:20.202Z,38.63
2022-08-27T16:21:49.919Z,36.88
2022-08-27T16:24:20.366Z,34.45
2022-08-27T16:26:49.982Z,38.13
2022-08-27T16:29:17.984Z,43.92
2022-08-27T16:31:45.998Z,45.38
2022-08-27T16:34:17.633Z,39.63
2022-08-27T16:36:45.788Z,38.83
2022-08-27T16:39:13.874Z,37.70
2022-08-27T16:41:42.159Z,45.15
2022-08-27T16:44:11.993Z,36.78
2022-08-27T16:46:40.328Z,38.10
2022-08-27T16:49:25.735Z,43.05
2022-08-27T16:51:53.644Z,40.72
2022-08-27T16:54:21.628Z,43.28
2022-08-27T16:56:49.689Z,42.00
2022-08-27T16:59:19.185Z,44.47
2022-08-27T17:01:51.251Z,48.55
2022-08-27T17:04:29.353Z,60.33
2022-08-27T17:06:59.370Z,75.38
2022-08-27T17:09:27.347Z,78.07
2022-08-27T17:11:58.357Z,70.10
2022-08-27T17:14:27.710Z,75.25
2022-08-27T17:16:55.661Z,48.60
2022-08-27T17:19:26.115Z,46.45
2022-08-27T17:21:55.116Z,48.78
2022-08-27T17:24:23.544Z,63.60
2022-08-27T17:26:51.544Z,55.60
2022-08-27T17:29:19.804Z,49.15
2022-08-27T17:31:49.111Z,54.50
2022-08-27T17:34:21.251Z,55.08
2022-08-27T17:36:49.508Z,55.70
2022-08-27T17:39:18.348Z,52.55
2022-08-27T17:41:48.838Z,47.47
2022-08-27T17:44:22.039Z,61.63
2022-08-27T17:46:51.834Z,53.42
2022-08-27T17:49:20.174Z,56.08
2022-08-27T17:51:49.882Z,58.10
2022-08-27T17:54:27.923Z,49.50
2022-08-27T17:59:23.630Z,50.08
2022-08-27T18:01:53.349Z,58.28
2022-08-27T18:04:22.411Z,58.40
2022-08-27T18:06:50.646Z,57.25
2022-08-27T18:09:18.703Z,60.42
2022-08-27T18:11:47.311Z,57.60
2022-08-27T18:14:18.505Z,48.92
2022-08-27T18:16:46.959Z,48.70
2022-08-27T18:19:16.623Z,51.15
2022-08-27T18:21:46.549Z,65.35
2022-08-27T18:24:15.565Z,54.80
2022-08-27T18:26:44.373Z,61.53
2022-08-27T18:29:14.574Z,60.60
2022-08-27T18:31:43.642Z,62.70
2022-08-27T18:34:11.703Z,64.18
2022-08-27T18:36:40.975Z,58.72
2022-08-27T18:39:09.177Z,66.95
2022-08-27T18:41:37.319Z,66.82
2022-08-27T18:44:05.519Z,58.10
2022-08-27T18:46:45.521Z,62.47
2022-08-27T18:49:13.464Z,62.70
2022-08-27T18:51:46.165Z,60.78
2022-08-27T18:54:16.486Z,55.60
2022-08-27T18:56:44.486Z,64.82
2022-08-27T18:59:13.126Z,55.30
2022-08-27T19:01:41.411Z,59.53
2022-08-27T19:04:09.999Z,63.20
2022-08-27T19:06:38.444Z,56.47
2022-08-27T19:09:08.644Z,68.18
2022-08-27T19:11:36.600Z,68.22
2022-08-27T19:14:04.747Z,65.88
2022-08-27T19:16:41.385Z,59.22
2022-08-27T19:19:10.469Z,63.65
2022-08-27T19:21:38.590Z,60.83
2022-08-27T19:24:09.186Z,69.22
2022-08-27T19:26:37.918Z,59.90
2022-08-27T19:29:07.910Z,67.75
2022-08-27T19:31:37.002Z,62.38
2022-08-27T19:34:05.848Z,62.00
2022-08-27T19:36:36.740Z,64.43
2022-08-27T19:39:05.530Z,66.70
2022-08-27T19:41:35.403Z,59.13
2022-08-27T19:44:03.928Z,55.45
2022-08-27T19:46:32.715Z,56.08
2022-08-27T19:49:00.648Z,73.30
2022-08-27T19:51:29.124Z,61.33
2022-08-27T19:53:57.125Z,60.03
2022-08-27T19:56:25.063Z,62.42
2022-08-27T19:58:58.527Z,64.22
2022-08-27T20:01:29.592Z,60.78
2022-08-27T20:03:58.836Z,62.22
2022-08-27T20:06:28.191Z,55.97
2022-08-27T20:08:56.165Z,65.35
2022-08-27T20:11:24.198Z,66.40
2022-08-27T20:13:52.435Z,82.50
2022-08-27T20:16:21.739Z,61.20
2022-08-27T20:18:49.923Z,57.60
2022-08-27T20:21:17.850Z,73.20
2022-08-27T20:23:45.874Z,74.05
2022-08-27T20:26:13.978Z,68.82
2022-08-27T20:28:42.453Z,70.07
2022-08-27T20:31:10.848Z,69.93
2022-08-27T20:33:40.613Z,76.90
2022-08-27T20:36:09.527Z,72.75
2022-08-27T20:38:37.425Z,73.45
2022-08-27T20:41:06.298Z,71.07
2022-08-27T20:43:34.843Z,72.43
2022-08-27T20:46:03.546Z,67.40
2022-08-27T20:48:31.515Z,71.05
2022-08-27T20:51:01.184Z,73.72
2022-08-27T20:53:29.189Z,80.63
2022-08-27T20:56:00.137Z,77.47
2022-08-27T20:58:45.875Z,81.22
2022-08-27T21:01:13.886Z,69.53
2022-08-27T21:03:41.903Z,71.00
2022-08-27T21:06:11.643Z,72.18
2022-08-27T21:08:40.301Z,85.38
2022-08-27T21:11:10.933Z,73.32
2022-08-27T21:13:51.162Z,71.10
2022-08-27T21:20:11.941Z,66.43
2022-08-27T21:22:42.608Z,65.10
2022-08-27T21:25:13.130Z,73.35
2022-08-27T21:27:42.023Z,78.32
2022-08-27T21:30:12.189Z,74.00
2022-08-27T21:32:40.163Z,73.63
2022-08-27T21:35:08.697Z,74.40
2022-08-27T21:37:36.840Z,62.25
2022-08-27T21:40:07.937Z,69.68
2022-08-27T21:42:36.540Z,64.13
2022-08-27T21:45:04.978Z,66.68
2022-08-27T21:47:32.867Z,73.35
2022-08-27T21:50:00.905Z,71.57
2022-08-27T21:52:28.876Z,73.85
2022-08-27T21:54:56.804Z,83.32
2022-08-27T21:57:28.903Z,66.30
2022-08-27T21:59:56.981Z,66.85
2022-08-27T22:02:39.914Z,80.20
2022-08-27T22:05:09.168Z,80.20
2022-08-27T22:07:37.319Z,70.60
2022-08-27T22:10:06.758Z,74.28
2022-08-27T22:12:36.323Z,68.18
2022-08-27T22:15:05.972Z,75.43
2022-08-27T22:17:33.963Z,63.22
2022-08-27T22:20:01.896Z,79.93
2022-08-27T22:22:34.912Z,83.95
2022-08-27T22:25:04.026Z,75.38
2022-08-27T22:27:32.194Z,87.60
2022-08-27T22:30:01.530Z,91.97
2022-08-27T22:32:29.445Z,65.65
2022-08-27T22:34:57.432Z,79.75
2022-08-27T22:37:25.519Z,85.32
2022-08-27T22:39:53.673Z,68.05
2022-08-27T22:42:23.278Z,72.35
2022-08-27T22:44:53.092Z,68.55
2022-08-27T22:47:22.404Z,65.05
2022-08-27T22:49:52.785Z,70.55
2022-08-27T22:52:21.144Z,71.10
2022-08-27T22:54:54.776Z,70.88
2022-08-27T22:57:23.068Z,67.90
2022-08-27T22:59:50.985Z,90.50
2022-08-27T23:02:19.042Z,190.15
2022-08-27T23:04:56.307Z,114.90
2022-08-27T23:07:24.772Z,73.13
2022-08-27T23:09:52.760Z,86.28
2022-08-27T23:12:20.816Z,71.63
2022-08-27T23:14:48.815Z,69.10
2022-08-27T23:17:17.001Z,81.03
2022-08-27T23:19:45.502Z,77.88
2022-08-27T23:22:16.192Z,60.95
2022-08-27T23:24:58.048Z,77.95
2022-08-27T23:27:32.064Z,152.07
2022-08-27T23:30:01.973Z,63.55
2022-08-27T23:32:30.517Z,62.55
2022-08-27T23:34:58.430Z,59.80
2022-08-27T23:37:28.264Z,52.88
2022-08-27T23:39:56.163Z,62.47
2022-08-27T23:42:24.519Z,101.88
2022-08-27T23:44:52.388Z,255.48
2022-08-27T23:47:20.272Z,102.55
2022-08-27T23:49:48.148Z,77.50
2022-08-27T23:52:16.122Z,80.45
2022-08-27T23:54:45.363Z,76.80
2022-08-27T23:57:13.229Z,88.18
2022-08-27T23:59:41.157Z,65.22
